sensor_id;sensor_type;location;lat;lon;timestamp;pressure;altitude;pressure_sealevel;temperature;humidity
59588;BME280;45412;54.472;18.464;2023-07-09T00:00:51;100488.23;;;13.03;91.22
59588;BME280;45412;54.472;18.464;2023-07-09T00:03:39;100479.70;;;13.01;91.25
59588;BME280;45412;54.472;18.464;2023-07-09T00:06:27;100479.92;;;13.00;91.29
59588;BME280;45412;54.472;18.464;2023-07-09T00:09:21;100477.94;;;12.98;91.80
59588;BME280;45412;54.472;18.464;2023-07-09T00:12:15;100474.90;;;12.98;92.13
59588;BME280;45412;54.472;18.464;2023-07-09T00:15:12;100472.64;;;13.00;92.22
59588;BME280;45412;54.472;18.464;2023-07-09T00:18:00;100477.42;;;13.00;92.11
59588;BME280;45412;54.472;18.464;2023-07-09T00:20:48;100478.13;;;13.00;92.03
59588;BME280;45412;54.472;18.464;2023-07-09T00:23:36;100478.61;;;12.99;92.11
59588;BME280;45412;54.472;18.464;2023-07-09T00:26:26;100476.13;;;13.01;92.37
59588;BME280;45412;54.472;18.464;2023-07-09T00:29:16;100478.56;;;13.02;92.76
59588;BME280;45412;54.472;18.464;2023-07-09T00:32:19;100475.77;;;13.01;93.03
59588;BME280;45412;54.472;18.464;2023-07-09T00:35:12;100472.20;;;13.01;92.95
59588;BME280;45412;54.472;18.464;2023-07-09T00:38:03;100473.24;;;13.01;93.14
59588;BME280;45412;54.472;18.464;2023-07-09T00:41:03;100470.08;;;13.01;93.24
59588;BME280;45412;54.472;18.464;2023-07-09T00:43:54;100468.43;;;12.99;92.80
59588;BME280;45412;54.472;18.464;2023-07-09T00:49:40;100470.95;;;12.94;93.35
59588;BME280;45412;54.472;18.464;2023-07-09T00:52:57;100475.37;;;12.92;93.34
59588;BME280;45412;54.472;18.464;2023-07-09T00:56:09;100476.15;;;12.91;93.85
59588;BME280;45412;54.472;18.464;2023-07-09T00:59:03;100474.33;;;12.92;93.79
59588;BME280;45412;54.472;18.464;2023-07-09T01:01:54;100479.06;;;12.89;93.92
59588;BME280;45412;54.472;18.464;2023-07-09T01:04:43;100474.66;;;12.86;94.17
59588;BME280;45412;54.472;18.464;2023-07-09T01:07:32;100477.42;;;12.85;94.59
59588;BME280;45412;54.472;18.464;2023-07-09T01:10:20;100477.77;;;12.85;94.86
59588;BME280;45412;54.472;18.464;2023-07-09T01:13:10;100480.52;;;12.86;95.38
59588;BME280;45412;54.472;18.464;2023-07-09T01:16:03;100478.45;;;12.87;95.27
59588;BME280;45412;54.472;18.464;2023-07-09T01:18:52;100476.23;;;12.84;95.23
59588;BME280;45412;54.472;18.464;2023-07-09T01:21:40;100480.46;;;12.82;95.60
59588;BME280;45412;54.472;18.464;2023-07-09T01:24:56;100479.05;;;12.80;95.91
59588;BME280;45412;54.472;18.464;2023-07-09T01:27:52;100482.80;;;12.77;96.31
59588;BME280;45412;54.472;18.464;2023-07-09T01:30:52;100478.70;;;12.75;96.61
59588;BME280;45412;54.472;18.464;2023-07-09T01:33:43;100479.60;;;12.75;96.89
59588;BME280;45412;54.472;18.464;2023-07-09T01:36:32;100478.45;;;12.76;97.35
59588;BME280;45412;54.472;18.464;2023-07-09T01:39:23;100473.96;;;12.76;97.59
59588;BME280;45412;54.472;18.464;2023-07-09T01:42:12;100472.80;;;12.75;97.73
59588;BME280;45412;54.472;18.464;2023-07-09T01:45:05;100472.90;;;12.76;98.07
59588;BME280;45412;54.472;18.464;2023-07-09T01:47:54;100471.41;;;12.80;98.03
59588;BME280;45412;54.472;18.464;2023-07-09T01:50:44;100477.34;;;12.81;97.86
59588;BME280;45412;54.472;18.464;2023-07-09T01:53:32;100478.02;;;12.84;98.23
59588;BME280;45412;54.472;18.464;2023-07-09T01:56:24;100480.39;;;12.85;98.74
59588;BME280;45412;54.472;18.464;2023-07-09T01:59:12;100475.42;;;12.87;98.94
59588;BME280;45412;54.472;18.464;2023-07-09T02:02:04;100484.04;;;12.86;99.05
59588;BME280;45412;54.472;18.464;2023-07-09T02:04:55;100487.38;;;12.87;99.49
59588;BME280;45412;54.472;18.464;2023-07-09T02:07:43;100488.42;;;12.87;99.57
59588;BME280;45412;54.472;18.464;2023-07-09T02:10:32;100490.13;;;12.88;99.81
59588;BME280;45412;54.472;18.464;2023-07-09T02:13:23;100490.23;;;12.89;99.90
59588;BME280;45412;54.472;18.464;2023-07-09T02:16:12;100487.69;;;12.92;100.00
59588;BME280;45412;54.472;18.464;2023-07-09T02:19:00;100488.02;;;12.94;99.98
59588;BME280;45412;54.472;18.464;2023-07-09T02:21:49;100488.11;;;12.98;100.00
59588;BME280;45412;54.472;18.464;2023-07-09T02:24:38;100489.52;;;13.00;99.98
59588;BME280;45412;54.472;18.464;2023-07-09T02:27:26;100490.06;;;13.05;100.00
59588;BME280;45412;54.472;18.464;2023-07-09T02:30:16;100494.64;;;13.09;99.84
59588;BME280;45412;54.472;18.464;2023-07-09T02:33:04;100495.60;;;13.13;99.87
59588;BME280;45412;54.472;18.464;2023-07-09T02:35:53;100498.23;;;13.18;99.73
59588;BME280;45412;54.472;18.464;2023-07-09T02:38:41;100500.70;;;13.20;99.87
59588;BME280;45412;54.472;18.464;2023-07-09T02:41:30;100500.23;;;13.22;99.97
59588;BME280;45412;54.472;18.464;2023-07-09T02:44:18;100491.56;;;13.23;99.82
59588;BME280;45412;54.472;18.464;2023-07-09T02:47:06;100489.86;;;13.24;99.73
59588;BME280;45412;54.472;18.464;2023-07-09T02:50:00;100489.32;;;13.27;99.93
59588;BME280;45412;54.472;18.464;2023-07-09T02:52:51;100497.79;;;13.30;100.00
59588;BME280;45412;54.472;18.464;2023-07-09T02:55:39;100496.77;;;13.30;99.99
59588;BME280;45412;54.472;18.464;2023-07-09T02:58:29;100499.86;;;13.31;99.99
59588;BME280;45412;54.472;18.464;2023-07-09T03:01:18;100497.05;;;13.33;100.00
59588;BME280;45412;54.472;18.464;2023-07-09T03:04:08;100490.20;;;13.33;100.00
59588;BME280;45412;54.472;18.464;2023-07-09T03:06:56;100487.13;;;13.34;100.00
59588;BME280;45412;54.472;18.464;2023-07-09T03:09:43;100489.95;;;13.35;100.00
59588;BME280;45412;54.472;18.464;2023-07-09T03:12:32;100494.41;;;13.34;100.00
59588;BME280;45412;54.472;18.464;2023-07-09T03:15:20;100493.09;;;13.38;100.00
59588;BME280;45412;54.472;18.464;2023-07-09T03:18:08;100492.39;;;13.42;100.00
59588;BME280;45412;54.472;18.464;2023-07-09T03:20:56;100493.87;;;13.48;100.00
59588;BME280;45412;54.472;18.464;2023-07-09T03:23:44;100500.94;;;13.55;100.00
59588;BME280;45412;54.472;18.464;2023-07-09T03:26:33;100500.61;;;13.61;100.00
59588;BME280;45412;54.472;18.464;2023-07-09T03:29:25;100505.88;;;13.67;100.00
59588;BME280;45412;54.472;18.464;2023-07-09T03:32:17;100503.65;;;13.70;100.00
59588;BME280;45412;54.472;18.464;2023-07-09T03:35:06;100507.21;;;13.72;100.00
59588;BME280;45412;54.472;18.464;2023-07-09T03:37:54;100511.58;;;13.75;100.00
59588;BME280;45412;54.472;18.464;2023-07-09T03:40:42;100512.02;;;13.81;99.99
59588;BME280;45412;54.472;18.464;2023-07-09T03:43:30;100511.90;;;13.86;99.95
59588;BME280;45412;54.472;18.464;2023-07-09T03:46:18;100516.66;;;13.93;99.99
59588;BME280;45412;54.472;18.464;2023-07-09T03:49:06;100521.14;;;13.97;99.79
59588;BME280;45412;54.472;18.464;2023-07-09T03:51:54;100521.14;;;14.02;99.37
59588;BME280;45412;54.472;18.464;2023-07-09T03:54:45;100511.70;;;14.03;99.02
59588;BME280;45412;54.472;18.464;2023-07-09T03:57:35;100513.16;;;14.03;98.95
59588;BME280;45412;54.472;18.464;2023-07-09T04:00:25;100513.22;;;14.00;98.81
59588;BME280;45412;54.472;18.464;2023-07-09T04:03:12;100516.18;;;14.01;98.72
59588;BME280;45412;54.472;18.464;2023-07-09T04:06:01;100519.41;;;14.05;98.31
59588;BME280;45412;54.472;18.464;2023-07-09T04:08:49;100521.46;;;14.08;98.19
59588;BME280;45412;54.472;18.464;2023-07-09T04:11:37;100520.06;;;14.14;98.24
59588;BME280;45412;54.472;18.464;2023-07-09T04:14:28;100520.15;;;14.21;98.20
59588;BME280;45412;54.472;18.464;2023-07-09T04:17:17;100523.43;;;14.35;98.10
59588;BME280;45412;54.472;18.464;2023-07-09T04:20:07;100524.81;;;14.44;97.89
59588;BME280;45412;54.472;18.464;2023-07-09T04:22:56;100525.54;;;14.54;97.41
59588;BME280;45412;54.472;18.464;2023-07-09T04:25:44;100524.70;;;14.66;97.44
59588;BME280;45412;54.472;18.464;2023-07-09T04:28:33;100520.55;;;14.77;97.29
59588;BME280;45412;54.472;18.464;2023-07-09T04:31:21;100520.98;;;14.86;96.94
59588;BME280;45412;54.472;18.464;2023-07-09T04:34:09;100521.88;;;14.96;96.12
59588;BME280;45412;54.472;18.464;2023-07-09T04:37:00;100531.02;;;15.06;95.70
59588;BME280;45412;54.472;18.464;2023-07-09T04:39:49;100532.38;;;15.17;95.26
59588;BME280;45412;54.472;18.464;2023-07-09T04:42:39;100546.34;;;15.31;94.56
59588;BME280;45412;54.472;18.464;2023-07-09T04:45:27;100546.73;;;15.41;94.16
59588;BME280;45412;54.472;18.464;2023-07-09T04:48:15;100542.45;;;15.50;93.54
59588;BME280;45412;54.472;18.464;2023-07-09T04:51:07;100542.43;;;15.57;92.78
59588;BME280;45412;54.472;18.464;2023-07-09T04:53:55;100543.23;;;15.59;92.44
59588;BME280;45412;54.472;18.464;2023-07-09T04:56:42;100540.03;;;15.63;92.08
59588;BME280;45412;54.472;18.464;2023-07-09T04:59:32;100533.67;;;15.62;91.85
59588;BME280;45412;54.472;18.464;2023-07-09T05:02:24;100534.10;;;15.59;91.36
59588;BME280;45412;54.472;18.464;2023-07-09T05:05:12;100541.34;;;15.62;91.28
59588;BME280;45412;54.472;18.464;2023-07-09T05:08:00;100533.55;;;15.67;91.17
59588;BME280;45412;54.472;18.464;2023-07-09T05:10:51;100525.63;;;15.70;90.72
59588;BME280;45412;54.472;18.464;2023-07-09T05:13:42;100535.96;;;15.89;90.28
59588;BME280;45412;54.472;18.464;2023-07-09T05:16:33;100543.89;;;16.01;89.75
59588;BME280;45412;54.472;18.464;2023-07-09T05:19:21;100546.08;;;16.14;89.58
59588;BME280;45412;54.472;18.464;2023-07-09T05:22:11;100548.65;;;16.35;88.96
59588;BME280;45412;54.472;18.464;2023-07-09T05:25:05;100548.58;;;16.62;87.87
59588;BME280;45412;54.472;18.464;2023-07-09T05:27:57;100541.39;;;17.00;86.59
59588;BME280;45412;54.472;18.464;2023-07-09T05:30:45;100534.77;;;17.22;84.89
59588;BME280;45412;54.472;18.464;2023-07-09T05:33:33;100541.17;;;17.57;84.10
59588;BME280;45412;54.472;18.464;2023-07-09T05:36:21;100542.79;;;18.34;82.13
59588;BME280;45412;54.472;18.464;2023-07-09T05:39:09;100545.91;;;18.94;79.20
59588;BME280;45412;54.472;18.464;2023-07-09T05:41:57;100550.81;;;19.29;76.75
59588;BME280;45412;54.472;18.464;2023-07-09T05:44:45;100552.41;;;20.01;74.22
59588;BME280;45412;54.472;18.464;2023-07-09T05:47:33;100553.10;;;21.15;69.37
59588;BME280;45412;54.472;18.464;2023-07-09T05:50:22;100551.75;;;22.20;65.49
59588;BME280;45412;54.472;18.464;2023-07-09T05:53:10;100549.37;;;23.22;60.40
59588;BME280;45412;54.472;18.464;2023-07-09T05:55:59;100549.85;;;24.14;55.41
59588;BME280;45412;54.472;18.464;2023-07-09T05:58:51;100545.55;;;24.99;52.81
59588;BME280;45412;54.472;18.464;2023-07-09T06:01:43;100544.25;;;25.76;49.17
59588;BME280;45412;54.472;18.464;2023-07-09T06:04:31;100537.77;;;26.40;46.38
59588;BME280;45412;54.472;18.464;2023-07-09T06:07:21;100536.15;;;27.01;43.85
59588;BME280;45412;54.472;18.464;2023-07-09T06:10:10;100534.91;;;27.56;40.43
59588;BME280;45412;54.472;18.464;2023-07-09T06:12:58;100530.06;;;28.13;38.62
59588;BME280;45412;54.472;18.464;2023-07-09T06:15:54;100528.52;;;28.66;37.54
59588;BME280;45412;54.472;18.464;2023-07-09T06:18:42;100521.45;;;29.20;35.10
59588;BME280;45412;54.472;18.464;2023-07-09T06:21:30;100521.59;;;29.67;33.61
59588;BME280;45412;54.472;18.464;2023-07-09T06:24:18;100526.34;;;30.07;33.31
59588;BME280;45412;54.472;18.464;2023-07-09T06:27:09;100530.29;;;30.52;32.84
59588;BME280;45412;54.472;18.464;2023-07-09T06:29:57;100534.27;;;31.02;31.92
59588;BME280;45412;54.472;18.464;2023-07-09T06:32:45;100537.58;;;31.45;31.03
59588;BME280;45412;54.472;18.464;2023-07-09T06:35:33;100532.50;;;31.64;30.72
59588;BME280;45412;54.472;18.464;2023-07-09T06:38:22;100532.94;;;32.07;30.40
59588;BME280;45412;54.472;18.464;2023-07-09T06:41:11;100527.77;;;32.47;29.67
59588;BME280;45412;54.472;18.464;2023-07-09T06:43:59;100523.91;;;32.87;29.15
59588;BME280;45412;54.472;18.464;2023-07-09T06:46:48;100525.20;;;33.22;28.26
59588;BME280;45412;54.472;18.464;2023-07-09T06:49:36;100521.75;;;33.09;27.53
59588;BME280;45412;54.472;18.464;2023-07-09T06:52:24;100521.89;;;33.17;28.05
59588;BME280;45412;54.472;18.464;2023-07-09T06:55:12;100520.58;;;33.43;27.47
59588;BME280;45412;54.472;18.464;2023-07-09T06:58:01;100524.90;;;33.69;27.24
59588;BME280;45412;54.472;18.464;2023-07-09T07:00:49;100527.44;;;33.86;26.21
59588;BME280;45412;54.472;18.464;2023-07-09T07:03:38;100522.91;;;33.86;25.65
59588;BME280;45412;54.472;18.464;2023-07-09T07:06:27;100522.64;;;33.81;25.51
59588;BME280;45412;54.472;18.464;2023-07-09T07:09:23;100518.25;;;33.97;26.08
59588;BME280;45412;54.472;18.464;2023-07-09T07:12:40;100515.05;;;34.27;25.54
59588;BME280;45412;54.472;18.464;2023-07-09T07:15:28;100514.38;;;34.44;24.86
59588;BME280;45412;54.472;18.464;2023-07-09T07:18:16;100514.72;;;34.69;24.25
59588;BME280;45412;54.472;18.464;2023-07-09T07:21:05;100518.14;;;34.87;23.87
59588;BME280;45412;54.472;18.464;2023-07-09T07:23:54;100513.39;;;35.03;24.11
59588;BME280;45412;54.472;18.464;2023-07-09T07:26:42;100520.89;;;35.41;23.45
59588;BME280;45412;54.472;18.464;2023-07-09T07:29:30;100520.91;;;35.64;23.22
59588;BME280;45412;54.472;18.464;2023-07-09T07:32:18;100519.39;;;35.91;23.04
59588;BME280;45412;54.472;18.464;2023-07-09T07:35:09;100516.22;;;35.79;22.27
59588;BME280;45412;54.472;18.464;2023-07-09T07:37:58;100515.44;;;35.65;22.67
59588;BME280;45412;54.472;18.464;2023-07-09T07:40:46;100519.14;;;35.72;23.05
59588;BME280;45412;54.472;18.464;2023-07-09T07:43:34;100518.67;;;35.84;22.68
59588;BME280;45412;54.472;18.464;2023-07-09T07:46:22;100518.15;;;35.94;22.44
59588;BME280;45412;54.472;18.464;2023-07-09T07:49:10;100518.71;;;35.97;22.44
59588;BME280;45412;54.472;18.464;2023-07-09T07:51:59;100518.90;;;36.19;22.03
59588;BME280;45412;54.472;18.464;2023-07-09T07:54:52;100521.65;;;36.31;22.22
59588;BME280;45412;54.472;18.464;2023-07-09T07:57:40;100524.98;;;36.52;22.60
59588;BME280;45412;54.472;18.464;2023-07-09T08:00:32;100527.14;;;36.73;22.21
59588;BME280;45412;54.472;18.464;2023-07-09T08:03:20;100523.06;;;36.84;21.21
59588;BME280;45412;54.472;18.464;2023-07-09T08:06:08;100523.36;;;36.91;21.71
59588;BME280;45412;54.472;18.464;2023-07-09T08:08:58;100520.33;;;37.45;21.35
59588;BME280;45412;54.472;18.464;2023-07-09T08:11:46;100516.13;;;37.94;20.39
59588;BME280;45412;54.472;18.464;2023-07-09T08:14:34;100515.09;;;38.38;20.21
59588;BME280;45412;54.472;18.464;2023-07-09T08:17:24;100508.26;;;38.79;19.79
59588;BME280;45412;54.472;18.464;2023-07-09T08:20:12;100503.73;;;39.23;19.11
59588;BME280;45412;54.472;18.464;2023-07-09T08:23:01;100509.65;;;39.32;18.54
59588;BME280;45412;54.472;18.464;2023-07-09T08:25:55;60301.95;;;-27.72;10.73
59588;BME280;45412;54.472;18.464;2023-07-09T08:28:44;40201.12;;;-61.10;6.64
59588;BME280;45412;54.472;18.464;2023-07-09T08:31:32;100502.48;;;39.38;18.32
59588;BME280;45412;54.472;18.464;2023-07-09T08:34:22;100498.21;;;39.26;18.31
59588;BME280;45412;54.472;18.464;2023-07-09T08:37:10;100500.59;;;39.21;18.63
59588;BME280;45412;54.472;18.464;2023-07-09T08:39:58;100497.70;;;38.94;18.36
59588;BME280;45412;54.472;18.464;2023-07-09T08:42:49;100501.20;;;38.36;18.77
59588;BME280;45412;54.472;18.464;2023-07-09T08:49:16;100495.60;;;37.06;19.91
59588;BME280;45412;54.472;18.464;2023-07-09T08:52:31;100491.58;;;37.19;20.31
59588;BME280;45412;54.472;18.464;2023-07-09T08:55:27;100489.09;;;37.46;19.92
59588;BME280;45412;54.472;18.464;2023-07-09T08:58:29;100490.30;;;37.76;19.73
59588;BME280;45412;54.472;18.464;2023-07-09T09:01:45;100489.27;;;37.71;19.11
59588;BME280;45412;54.472;18.464;2023-07-09T09:04:37;100490.39;;;37.84;19.30
59588;BME280;45412;54.472;18.464;2023-07-09T09:07:40;100489.44;;;37.97;19.67
59588;BME280;45412;54.472;18.464;2023-07-09T09:10:40;100491.11;;;38.29;19.77
59588;BME280;45412;54.472;18.464;2023-07-09T09:13:31;100495.23;;;38.85;19.73
59588;BME280;45412;54.472;18.464;2023-07-09T09:16:35;100495.02;;;38.96;19.16
59588;BME280;45412;54.472;18.464;2023-07-09T09:19:37;100497.77;;;38.98;19.61
59588;BME280;45412;54.472;18.464;2023-07-09T09:22:42;100490.73;;;39.12;19.39
59588;BME280;45412;54.472;18.464;2023-07-09T09:25:37;100488.95;;;39.36;19.02
59588;BME280;45412;54.472;18.464;2023-07-09T09:28:28;100488.11;;;39.36;19.08
59588;BME280;45412;54.472;18.464;2023-07-09T09:31:17;100492.52;;;39.27;19.49
59588;BME280;45412;54.472;18.464;2023-07-09T09:34:04;100489.17;;;39.25;19.71
59588;BME280;45412;54.472;18.464;2023-07-09T09:36:55;100483.94;;;39.38;19.50
59588;BME280;45412;54.472;18.464;2023-07-09T09:39:43;100484.74;;;39.44;19.53
59588;BME280;45412;54.472;18.464;2023-07-09T09:42:50;100485.62;;;39.49;19.44
59588;BME280;45412;54.472;18.464;2023-07-09T09:45:40;100481.48;;;39.43;19.29
59588;BME280;45412;54.472;18.464;2023-07-09T09:48:31;100481.92;;;39.39;19.56
59588;BME280;45412;54.472;18.464;2023-07-09T09:51:20;100481.38;;;39.46;19.40
59588;BME280;45412;54.472;18.464;2023-07-09T09:54:17;100478.67;;;39.69;19.39
59588;BME280;45412;54.472;18.464;2023-07-09T09:57:22;100482.57;;;39.78;19.66
59588;BME280;45412;54.472;18.464;2023-07-09T10:00:15;100481.59;;;39.67;19.14
59588;BME280;45412;54.472;18.464;2023-07-09T10:03:05;100478.75;;;39.43;19.40
59588;BME280;45412;54.472;18.464;2023-07-09T10:05:59;100478.47;;;39.22;19.58
59588;BME280;45412;54.472;18.464;2023-07-09T10:12:45;100484.21;;;38.67;19.77
59588;BME280;45412;54.472;18.464;2023-07-09T10:16:14;100486.90;;;38.47;20.16
59588;BME280;45412;54.472;18.464;2023-07-09T10:22:07;100481.65;;;38.69;20.32
59588;BME280;45412;54.472;18.464;2023-07-09T10:36:02;100481.35;;;38.95;19.73
59588;BME280;45412;54.472;18.464;2023-07-09T10:39:19;100487.02;;;39.24;20.04
59588;BME280;45412;54.472;18.464;2023-07-09T10:42:30;100484.22;;;39.56;19.48
59588;BME280;45412;54.472;18.464;2023-07-09T10:45:37;100482.60;;;39.88;18.99
59588;BME280;45412;54.472;18.464;2023-07-09T10:48:40;100488.84;;;40.09;18.84
59588;BME280;45412;54.472;18.464;2023-07-09T10:51:53;100486.35;;;40.16;18.68
59588;BME280;45412;54.472;18.464;2023-07-09T10:55:17;100484.66;;;40.31;18.53
59588;BME280;45412;54.472;18.464;2023-07-09T10:58:37;100485.57;;;40.50;18.35
59588;BME280;45412;54.472;18.464;2023-07-09T11:01:38;100487.07;;;40.59;18.00
59588;BME280;45412;54.472;18.464;2023-07-09T11:05:04;100484.70;;;40.43;17.79
59588;BME280;45412;54.472;18.464;2023-07-09T11:07:59;100484.45;;;40.28;18.00
59588;BME280;45412;54.472;18.464;2023-07-09T11:11:01;100486.52;;;40.03;18.17
59588;BME280;45412;54.472;18.464;2023-07-09T11:13:56;100483.48;;;39.63;18.46
59588;BME280;45412;54.472;18.464;2023-07-09T11:16:45;100477.77;;;39.08;18.72
59588;BME280;45412;54.472;18.464;2023-07-09T11:20:06;100479.86;;;38.22;19.70
59588;BME280;45412;54.472;18.464;2023-07-09T11:23:01;100481.19;;;37.46;20.30
59588;BME280;45412;54.472;18.464;2023-07-09T11:26:10;100479.15;;;36.99;20.87
59588;BME280;45412;54.472;18.464;2023-07-09T11:32:08;100481.35;;;35.88;21.96
59588;BME280;45412;54.472;18.464;2023-07-09T11:35:09;100477.24;;;35.53;22.81
59588;BME280;45412;54.472;18.464;2023-07-09T11:38:08;100473.33;;;35.17;22.67
59588;BME280;45412;54.472;18.464;2023-07-09T11:41:21;100475.34;;;34.74;23.18
59588;BME280;45412;54.472;18.464;2023-07-09T11:44:27;100479.98;;;33.84;23.55
59588;BME280;45412;54.472;18.464;2023-07-09T11:51:10;100478.45;;;31.90;27.09
59588;BME280;45412;54.472;18.464;2023-07-09T11:54:02;100474.73;;;31.06;28.65
59588;BME280;45412;54.472;18.464;2023-07-09T11:56:58;100470.84;;;30.71;29.67
59588;BME280;45412;54.472;18.464;2023-07-09T11:59:47;100466.31;;;30.34;29.79
59588;BME280;45412;54.472;18.464;2023-07-09T12:02:35;100466.04;;;30.07;30.04
59588;BME280;45412;54.472;18.464;2023-07-09T12:05:28;100466.21;;;29.80;30.86
59588;BME280;45412;54.472;18.464;2023-07-09T12:08:17;100462.81;;;29.50;31.08
59588;BME280;45412;54.472;18.464;2023-07-09T12:11:22;100468.90;;;29.26;32.44
59588;BME280;45412;54.472;18.464;2023-07-09T12:14:12;100464.97;;;29.05;32.41
59588;BME280;45412;54.472;18.464;2023-07-09T12:17:00;100468.90;;;28.95;31.85
59588;BME280;45412;54.472;18.464;2023-07-09T12:19:51;100469.58;;;28.76;32.29
59588;BME280;45412;54.472;18.464;2023-07-09T12:22:40;100471.52;;;28.71;32.79
59588;BME280;45412;54.472;18.464;2023-07-09T12:25:30;100467.90;;;28.68;32.98
59588;BME280;45412;54.472;18.464;2023-07-09T12:28:20;100465.60;;;28.62;33.28
59588;BME280;45412;54.472;18.464;2023-07-09T12:31:15;100462.71;;;28.51;32.78
59588;BME280;45412;54.472;18.464;2023-07-09T12:34:03;100458.33;;;28.44;34.33
59588;BME280;45412;54.472;18.464;2023-07-09T12:36:54;100457.49;;;28.40;34.45
59588;BME280;45412;54.472;18.464;2023-07-09T12:39:45;100456.63;;;28.38;34.44
59588;BME280;45412;54.472;18.464;2023-07-09T12:42:35;100455.90;;;28.33;33.80
59588;BME280;45412;54.472;18.464;2023-07-09T12:45:25;100455.41;;;28.34;34.13
59588;BME280;45412;54.472;18.464;2023-07-09T12:48:13;100460.82;;;28.05;33.59
59588;BME280;45412;54.472;18.464;2023-07-09T12:51:06;100463.23;;;27.85;34.03
59588;BME280;45412;54.472;18.464;2023-07-09T12:54:17;100461.66;;;27.67;34.73
59588;BME280;45412;54.472;18.464;2023-07-09T12:57:16;100462.98;;;27.51;35.50
59588;BME280;45412;54.472;18.464;2023-07-09T13:00:14;100462.04;;;27.31;35.91
59588;BME280;45412;54.472;18.464;2023-07-09T13:03:03;100460.09;;;27.18;35.33
59588;BME280;45412;54.472;18.464;2023-07-09T13:06:04;100456.83;;;26.94;35.12
59588;BME280;45412;54.472;18.464;2023-07-09T13:08:59;100453.88;;;26.86;35.70
59588;BME280;45412;54.472;18.464;2023-07-09T13:11:48;100453.88;;;26.88;35.97
59588;BME280;45412;54.472;18.464;2023-07-09T13:14:36;100451.70;;;26.85;37.07
59588;BME280;45412;54.472;18.464;2023-07-09T13:17:30;100450.27;;;26.84;37.56
59588;BME280;45412;54.472;18.464;2023-07-09T13:20:19;100451.01;;;26.91;37.39
59588;BME280;45412;54.472;18.464;2023-07-09T13:23:28;100446.44;;;26.89;37.42
59588;BME280;45412;54.472;18.464;2023-07-09T13:26:19;100441.25;;;26.83;37.88
59588;BME280;45412;54.472;18.464;2023-07-09T13:29:14;100447.23;;;26.73;38.86
59588;BME280;45412;54.472;18.464;2023-07-09T13:32:10;100439.96;;;26.63;38.95
59588;BME280;45412;54.472;18.464;2023-07-09T13:35:02;100438.86;;;26.58;39.88
59588;BME280;45412;54.472;18.464;2023-07-09T13:37:54;100437.95;;;26.54;40.26
59588;BME280;45412;54.472;18.464;2023-07-09T13:40:44;100438.08;;;26.53;40.29
59588;BME280;45412;54.472;18.464;2023-07-09T13:43:36;100439.98;;;26.57;41.03
59588;BME280;45412;54.472;18.464;2023-07-09T13:46:26;100436.83;;;26.49;41.76
59588;BME280;45412;54.472;18.464;2023-07-09T13:49:17;100428.04;;;26.31;41.92
59588;BME280;45412;54.472;18.464;2023-07-09T13:52:13;100435.63;;;26.18;42.82
59588;BME280;45412;54.472;18.464;2023-07-09T13:55:02;100434.03;;;26.21;43.01
59588;BME280;45412;54.472;18.464;2023-07-09T13:57:50;100429.77;;;26.27;43.53
59588;BME280;45412;54.472;18.464;2023-07-09T14:00:41;100430.52;;;26.26;43.90
59588;BME280;45412;54.472;18.464;2023-07-09T14:03:31;100429.37;;;26.23;43.78
59588;BME280;45412;54.472;18.464;2023-07-09T14:06:20;100424.98;;;26.24;44.07
59588;BME280;45412;54.472;18.464;2023-07-09T14:09:10;100427.21;;;26.40;44.05
59588;BME280;45412;54.472;18.464;2023-07-09T14:11:58;100431.31;;;26.55;43.89
59588;BME280;45412;54.472;18.464;2023-07-09T14:14:47;100428.89;;;26.63;43.69
59588;BME280;45412;54.472;18.464;2023-07-09T14:17:37;100425.56;;;26.79;43.72
59588;BME280;45412;54.472;18.464;2023-07-09T14:20:26;100428.73;;;26.83;43.30
59588;BME280;45412;54.472;18.464;2023-07-09T14:23:18;100433.72;;;26.79;43.23
59588;BME280;45412;54.472;18.464;2023-07-09T14:26:09;100431.84;;;26.76;43.46
59588;BME280;45412;54.472;18.464;2023-07-09T14:28:57;100430.15;;;26.65;43.76
59588;BME280;45412;54.472;18.464;2023-07-09T14:31:47;100424.73;;;26.41;43.99
59588;BME280;45412;54.472;18.464;2023-07-09T14:34:35;100421.41;;;26.28;44.38
59588;BME280;45412;54.472;18.464;2023-07-09T14:37:28;100420.41;;;26.30;44.47
59588;BME280;45412;54.472;18.464;2023-07-09T14:40:18;100420.46;;;26.24;44.01
59588;BME280;45412;54.472;18.464;2023-07-09T14:43:11;100414.39;;;26.21;44.28
59588;BME280;45412;54.472;18.464;2023-07-09T14:45:58;100416.60;;;26.09;44.79
59588;BME280;45412;54.472;18.464;2023-07-09T14:48:50;100417.14;;;26.02;44.73
59588;BME280;45412;54.472;18.464;2023-07-09T14:51:38;100421.27;;;26.05;44.97
59588;BME280;45412;54.472;18.464;2023-07-09T14:54:28;100427.06;;;26.03;44.96
59588;BME280;45412;54.472;18.464;2023-07-09T14:57:22;100425.22;;;26.00;44.62
59588;BME280;45412;54.472;18.464;2023-07-09T15:00:19;100420.67;;;25.94;44.61
59588;BME280;45412;54.472;18.464;2023-07-09T15:03:11;100416.14;;;25.93;44.65
59588;BME280;45412;54.472;18.464;2023-07-09T15:06:01;100408.09;;;25.89;44.50
59588;BME280;45412;54.472;18.464;2023-07-09T15:08:50;100413.02;;;25.83;44.31
59588;BME280;45412;54.472;18.464;2023-07-09T15:11:38;100412.67;;;25.83;44.36
59588;BME280;45412;54.472;18.464;2023-07-09T15:14:27;100403.81;;;25.87;44.34
59588;BME280;45412;54.472;18.464;2023-07-09T15:17:15;100405.63;;;25.84;44.47
59588;BME280;45412;54.472;18.464;2023-07-09T15:20:05;100400.17;;;25.80;44.19